Time;durP1;ratioP1;P1;durP2;ratioP2;P2;SDS_P1;SDS_P2;PMS_P1;PMS_P2;Temp;Humidity;BMP_temperature;BMP_pressure;BME280_temperature;BME280_humidity;BME280_pressure;Samples;Min_cycle;Max_cycle;Signal;HPM_P1;HPM_P2
2022/04/16 00:00:27;;;;;;;;;;;9.30;74.60;;;8.29;nan;96151.13;4183964;33;20091;-88
2022/04/16 00:02:56;;;;;;;;;;;9.30;74.60;;;8.30;nan;96162.88;4160961;33;20331;-88
2022/04/16 00:05:25;;;;;;;;;;;9.30;74.50;;;8.29;nan;96153.03;4166109;33;20139;-86
2022/04/16 00:10:36;;;;;;;;;;;9.30;74.50;;;8.29;nan;96151.13;4207551;33;20083;-86
2022/04/16 00:13:04;;;;;;;;;;;9.30;74.70;;;8.28;nan;96144.03;4188335;33;19909;-86
2022/04/16 00:15:34;;;;;;;;;;;9.30;74.80;;;8.29;nan;96142.97;4256471;28;19971;-83
2022/04/16 00:18:03;;;;;;;;;;;9.30;74.80;;;8.30;nan;96141.03;4239510;33;20235;-83
2022/04/16 00:20:33;;;;;;;;;;;9.30;74.90;;;8.29;nan;96144.84;4239984;33;20128;-83
2022/04/16 00:23:01;;;;;;;;;;;9.30;74.80;;;8.30;nan;96149.22;4216475;33;19902;-83
2022/04/16 00:25:30;;;;;;;;;;;9.30;74.90;;;8.28;nan;96144.03;4233998;33;20019;-83
2022/04/16 00:27:59;;;;;;;;;;;9.30;74.90;;;8.28;nan;96149.50;4243250;33;19924;-83
2022/04/16 00:30:27;;;;;;;;;;;9.30;74.80;;;8.28;nan;96160.41;4268286;33;20125;-83
2022/04/16 00:32:58;;;;;;;;;;;9.30;74.70;;;8.29;nan;96150.31;4292541;33;19925;-83
2022/04/16 00:35:26;;;;;;;;;;;9.30;74.80;;;8.28;nan;96141.31;4268198;33;19901;-83
2022/04/16 00:37:55;;;;;;;;;;;9.30;74.80;;;8.29;nan;96150.31;4291551;33;20121;-83
2022/04/16 00:40:24;;;;;;;;;;;9.30;74.80;;;8.28;nan;96146.75;4292514;33;19901;-83
2022/04/16 00:42:53;;;;;;;;;;;9.30;74.80;;;8.29;nan;96155.75;4244480;33;20239;-83
2022/04/16 00:45:22;;;;;;;;;;;9.30;74.80;;;8.27;nan;96142.38;4244275;33;20024;-83
2022/04/16 00:47:50;;;;;;;;;;;9.30;75.70;;;8.27;nan;96136.94;4267596;33;20136;-83
2022/04/16 00:50:20;;;;;;;;;;;9.30;74.80;;;8.26;nan;96139.94;4268098;33;20096;-83
2022/04/16 00:52:49;;;;;;;;;;;9.30;74.60;;;8.26;nan;96140.75;4292196;33;20109;-83
2022/04/16 00:55:18;;;;;;;;;;;9.30;74.60;;;8.27;nan;96136.09;4267965;33;20031;-83
2022/04/16 00:57:46;;;;;;;;;;;9.30;74.40;;;8.25;nan;96130.91;4267783;33;20104;-83
2022/04/16 01:00:16;;;;;;;;;;;9.30;74.30;;;8.25;nan;96139.09;4267959;33;19909;-83
2022/04/16 01:02:46;;;;;;;;;;;9.30;74.20;;;8.25;nan;96144.53;4292109;33;20150;-83
2022/04/16 01:05:15;;;;;;;;;;;9.30;74.30;;;8.25;nan;96133.63;4267925;33;20154;-83
2022/04/16 01:07:54;;;;;;;;;;;9.30;74.30;;;8.25;nan;96143.72;4296396;32;20097;-83
2022/04/16 01:10:26;;;;;;;;;;;9.30;74.30;;;8.24;nan;96137.44;4322446;32;20164;-83
2022/04/16 01:12:54;;;;;;;;;;;9.30;74.30;;;8.24;nan;96137.44;4272723;32;19903;-83
2022/04/16 01:15:23;;;;;;;;;;;9.30;74.10;;;8.24;nan;96137.44;4296656;32;20235;-83
2022/04/16 01:17:54;;;;;;;;;;;9.30;74.10;;;8.24;nan;96132.00;4296218;32;23632;-83
2022/04/16 01:20:24;;;;;;;;;;;9.30;74.00;;;8.22;nan;96131.41;4296792;32;19945;-83
2022/04/16 01:22:54;;;;;;;;;;;9.30;73.90;;;8.23;nan;96133.06;4272742;32;20143;-83
2022/04/16 01:25:24;;;;;;;;;;;9.30;73.70;;;8.24;nan;96136.63;4272756;32;19964;-83
2022/04/16 01:27:52;;;;;;;;;;;9.30;73.70;;;8.22;nan;96134.16;4272167;32;20270;-83
2022/04/16 01:30:22;;;;;;;;;;;9.30;73.60;;;8.22;nan;96136.88;4296764;32;20234;-83
2022/04/16 01:32:51;;;;;;;;;;;9.30;73.60;;;8.22;nan;96127.88;4272425;32;20154;-83
2022/04/16 01:35:19;;;;;;;;;;;9.30;73.50;;;8.22;nan;96128.69;4272416;32;20025;-83
2022/04/16 01:37:48;;;;;;;;;;;9.30;73.50;;;8.21;nan;96129.75;4271954;32;19968;-83
2022/04/16 01:40:18;;;;;;;;;;;9.30;73.50;;;8.22;nan;96134.16;4272525;32;19915;-83
2022/04/16 01:42:46;;;;;;;;;;;9.30;73.50;;;8.21;nan;96131.69;4296591;32;20023;-83
2022/04/16 01:45:17;;;;;;;;;;;9.30;73.40;;;8.20;nan;96122.66;4296422;32;20155;-83
2022/04/16 01:47:46;;;;;;;;;;;9.30;73.50;;;8.21;nan;96121.59;4296259;32;20146;-83
2022/04/16 01:50:14;;;;;;;;;;;9.30;73.50;;;8.20;nan;96110.94;4271686;32;20256;-83
2022/04/16 01:52:43;;;;;;;;;;;9.30;73.50;;;8.20;nan;96109.03;4272427;32;19900;-83
2022/04/16 01:55:12;;;;;;;;;;;9.30;73.50;;;8.21;nan;96116.13;4296444;32;20052;-83
2022/04/16 01:57:42;;;;;;;;;;;9.30;73.30;;;8.20;nan;96111.75;4295789;32;19901;-82
2022/04/16 02:00:14;;;;;;;;;;;9.20;73.10;;;8.19;nan;96110.13;4272206;32;20092;-83
2022/04/16 02:02:43;;;;;;;;;;;9.20;73.10;;;8.19;nan;96112.88;4320706;32;20070;-83
2022/04/16 02:05:11;;;;;;;;;;;9.30;73.30;;;8.19;nan;96114.75;4296105;32;19901;-83
2022/04/16 02:07:42;;;;;;;;;;;9.20;73.20;;;8.18;nan;96118.56;4263511;33;20043;-83
2022/04/16 02:10:12;;;;;;;;;;;9.20;73.20;;;8.19;nan;96115.59;4267265;33;19901;-83
2022/04/16 02:12:42;;;;;;;;;;;9.20;73.20;;;8.17;nan;96109.56;4243370;33;20469;-83
2022/04/16 02:15:11;;;;;;;;;;;9.20;73.20;;;8.16;nan;96113.38;4242177;33;20036;-83
2022/04/16 02:17:40;;;;;;;;;;;9.20;73.00;;;8.16;nan;96107.91;4248890;32;19901;-83
2022/04/16 02:20:10;;;;;;;;;;;9.20;72.80;;;8.18;nan;96119.41;4321606;32;20334;-83
2022/04/16 02:22:43;;;;;;;;;;;9.20;72.80;;;8.16;nan;96107.91;4296107;32;19901;-83
2022/04/16 02:25:13;;;;;;;;;;;9.20;72.80;;;8.17;nan;96104.13;4296035;32;19933;-83
2022/04/16 02:27:43;;;;;;;;;;;9.20;72.80;;;8.16;nan;96097.00;4295630;32;19901;-83
2022/04/16 02:30:13;;;;;;;;;;;9.20;72.90;;;8.16;nan;96101.63;4271708;32;20012;-83
2022/04/16 02:32:43;;;;;;;;;;;9.20;72.80;;;8.16;nan;96094.28;4296155;32;19900;-83
2022/04/16 02:35:13;;;;;;;;;;;9.20;72.80;;;8.16;nan;96096.19;4295766;32;19901;-83
2022/04/16 02:37:41;;;;;;;;;;;9.20;72.90;;;8.16;nan;96099.75;4271383;32;19901;-83
2022/04/16 02:40:11;;;;;;;;;;;9.20;72.80;;;8.15;nan;96103.53;4295976;32;19901;-83
2022/04/16 02:42:41;;;;;;;;;;;9.20;72.80;;;8.13;nan;96098.31;4296004;32;20220;-83
2022/04/16 02:48:00;;;;;;;;;;;9.20;72.80;;;8.13;nan;96098.31;4295527;32;20082;-82
2022/04/16 02:50:28;;;;;;;;;;;9.20;72.80;;;8.15;nan;96089.91;4294786;32;20029;-82
2022/04/16 02:52:58;;;;;;;;;;;9.20;72.90;;;8.13;nan;96097.53;4270900;32;19901;-83
2022/04/16 02:55:26;;;;;;;;;;;9.20;72.90;;;8.13;nan;96098.31;4295780;32;19908;-83
2022/04/16 02:57:55;;;;;;;;;;;9.20;73.10;;;8.13;nan;96098.31;4271191;32;20145;-83
2022/04/16 03:00:26;;;;;;;;;;;9.20;73.30;;;8.14;nan;96099.16;4271332;32;19901;-83
2022/04/16 03:02:54;;;;;;;;;;;9.20;72.80;;;8.12;nan;96095.88;4295351;32;20120;-83
2022/04/16 03:05:23;;;;;;;;;;;9.20;72.90;;;8.11;nan;96097.78;4242666;33;20105;-82
2022/04/16 03:07:52;;;;;;;;;;;9.20;72.70;;;8.11;nan;96099.69;4242388;33;20153;-83
2022/04/16 03:10:20;;;;;;;;;;;9.20;72.60;;;8.12;nan;96107.63;4242610;33;19901;-83
2022/04/16 03:12:51;;;;;;;;;;;9.20;72.50;;;8.13;nan;96102.97;4291662;33;20069;-82
2022/04/16 03:18:08;;;;;;;;;;;9.20;72.60;;;8.11;nan;96103.25;4291162;33;20144;-82
2022/04/16 03:20:37;;;;;;;;;;;9.20;72.70;;;8.12;nan;96093.16;4266701;33;19909;-81
2022/04/16 03:23:05;;;;;;;;;;;9.20;73.60;;;8.12;nan;96096.72;4242600;33;19908;-82
2022/04/16 03:25:34;;;;;;;;;;;9.20;72.90;;;8.12;nan;96095.88;4266394;33;20385;-82
2022/04/16 03:28:03;;;;;;;;;;;9.20;72.80;;;8.12;nan;96084.97;4265936;33;19908;-82
2022/04/16 03:30:31;;;;;;;;;;;9.20;72.90;;;8.11;nan;96089.59;4242641;33;19902;-82
2022/04/16 03:33:00;;;;;;;;;;;9.20;72.80;;;8.10;nan;96093.41;4242767;33;20159;-81
2022/04/16 03:35:30;;;;;;;;;;;9.20;72.70;;;8.10;nan;96098.03;4242530;33;20229;-82
2022/04/16 03:37:58;;;;;;;;;;;9.20;72.70;;;8.10;nan;96103.47;4242058;33;19990;-82
2022/04/16 03:40:27;;;;;;;;;;;9.20;72.80;;;8.10;nan;96098.03;4242806;33;19981;-81
2022/04/16 03:42:58;;;;;;;;;;;9.20;72.80;;;8.11;nan;96102.41;4266233;33;19924;-81
2022/04/16 03:45:29;;;;;;;;;;;9.20;72.80;;;8.11;nan;96099.69;4266078;33;19924;-82
2022/04/16 03:47:59;;;;;;;;;;;9.20;72.80;;;8.10;nan;96108.94;4265638;33;20127;-81
2022/04/16 03:50:30;;;;;;;;;;;9.20;72.90;;;8.11;nan;96099.69;4263629;32;20219;-82
2022/04/16 03:52:59;;;;;;;;;;;9.20;72.90;;;8.10;nan;96104.31;4295044;32;20134;-81
2022/04/16 04:01:02;;;;;;;;;;;9.20;72.90;;;8.11;nan;96110.59;4270590;32;20265;-81
2022/04/16 04:03:30;;;;;;;;;;;9.20;72.90;;;8.10;nan;96114.38;4295012;32;19900;-82
2022/04/16 04:06:01;;;;;;;;;;;9.20;72.80;;;8.12;nan;96112.22;4265364;33;20208;-81
2022/04/16 04:08:31;;;;;;;;;;;9.20;72.70;;;8.11;nan;96105.97;4265816;33;20140;-82
2022/04/16 04:10:59;;;;;;;;;;;9.20;72.60;;;8.11;nan;96100.50;4241895;33;20239;-82
2022/04/16 04:13:28;;;;;;;;;;;9.20;72.70;;;8.11;nan;96095.06;4266384;33;19924;-82
2022/04/16 04:15:56;;;;;;;;;;;9.20;72.80;;;8.12;nan;96104.06;4243738;33;19901;-82
2022/04/16 04:18:26;;;;;;;;;;;9.20;72.80;;;8.12;nan;96109.50;4267685;33;19908;-82
2022/04/16 04:20:56;;;;;;;;;;;9.20;72.80;;;8.12;nan;96109.50;4267972;33;19909;-82
2022/04/16 04:23:26;;;;;;;;;;;9.20;72.80;;;8.12;nan;96104.88;4293033;33;19916;-82
2022/04/16 04:25:55;;;;;;;;;;;9.20;72.90;;;8.13;nan;96116.59;4267518;33;19901;-82
2022/04/16 04:28:24;;;;;;;;;;;9.20;73.00;;;8.13;nan;96108.44;4243675;33;19902;-82
2022/04/16 04:30:52;;;;;;;;;;;9.20;73.00;;;8.13;nan;96095.59;4244225;33;20094;-82
2022/04/16 04:33:21;;;;;;;;;;;9.20;73.00;;;8.13;nan;96108.44;4244108;33;19928;-82
2022/04/16 04:35:51;;;;;;;;;;;9.20;72.90;;;8.13;nan;96108.44;4243827;33;20200;-82
2022/04/16 04:38:20;;;;;;;;;;;9.20;72.90;;;8.13;nan;96108.44;4291642;33;19953;-82
2022/04/16 04:40:50;;;;;;;;;;;9.20;73.20;;;8.13;nan;96103.78;4243868;33;19976;-82
2022/04/16 04:43:18;;;;;;;;;;;9.20;73.10;;;8.13;nan;96109.25;4243990;33;20071;-82
2022/04/16 04:45:48;;;;;;;;;;;9.20;73.10;;;8.13;nan;96111.16;4267602;33;19902;-82
2022/04/16 04:48:16;;;;;;;;;;;9.20;72.90;;;8.13;nan;96117.41;4267084;33;19979;-82
2022/04/16 04:50:45;;;;;;;;;;;9.20;73.00;;;8.14;nan;96118.25;4267834;33;20144;-82
2022/04/16 04:53:14;;;;;;;;;;;9.20;72.80;;;8.16;nan;96128.91;4267598;33;19927;-82
2022/04/16 04:55:42;;;;;;;;;;;9.20;72.80;;;8.16;nan;96128.91;4267555;33;19901;-82
2022/04/16 04:58:12;;;;;;;;;;;9.20;73.00;;;8.17;nan;96133.28;4243297;33;19902;-82
2022/04/16 05:00:41;;;;;;;;;;;9.20;73.10;;;8.17;nan;96128.66;4267588;33;20221;-82
2022/04/16 05:03:09;;;;;;;;;;;9.20;73.30;;;8.20;nan;96130.84;4267610;33;19901;-82
2022/04/16 05:05:38;;;;;;;;;;;9.30;73.60;;;8.23;nan;96124.88;4291440;33;19910;-82
2022/04/16 05:08:06;;;;;;;;;;;9.30;73.90;;;8.25;nan;96117.28;4243067;33;20396;-82
2022/04/16 05:10:35;;;;;;;;;;;9.30;74.30;;;8.34;nan;96116.78;4250519;32;19908;-82
2022/04/16 05:13:03;;;;;;;;;;;9.40;74.70;;;8.52;nan;96116.47;4272622;32;20017;-82
2022/04/16 05:15:33;;;;;;;;;;;9.70;74.80;;;8.80;nan;96113.66;4272190;32;19924;-82
2022/04/16 05:18:02;;;;;;;;;;;10.00;73.70;;;9.11;nan;96109.25;4295825;32;19923;-82
2022/04/16 05:20:31;;;;;;;;;;;10.30;72.30;;;9.39;nan;96107.22;4272185;32;20124;-82
2022/04/16 05:22:59;;;;;;;;;;;10.60;71.00;;;9.62;nan;96110.59;4296387;32;20220;-82
2022/04/16 05:25:28;;;;;;;;;;;10.80;69.80;;;9.72;nan;96105.19;4321589;32;19916;-82
2022/04/16 05:27:56;;;;;;;;;;;10.90;69.00;;;9.77;nan;96107.94;4295790;32;20000;-82
2022/04/16 05:30:30;;;;;;;;;;;10.90;68.70;;;9.72;nan;96104.34;4296385;32;19905;-82
2022/04/16 05:33:05;;;;;;;;;;;10.90;68.60;;;9.63;nan;96120.44;4272156;32;19964;-82
2022/04/16 05:35:34;;;;;;;;;;;10.80;68.80;;;9.55;nan;96126.44;4272028;32;20151;-82
2022/04/16 05:38:02;;;;;;;;;;;10.70;69.20;;;9.49;nan;96128.31;4271815;32;19901;-82
2022/04/16 05:40:31;;;;;;;;;;;10.60;69.60;;;9.42;nan;96122.28;4272056;32;20231;-82
2022/04/16 05:42:59;;;;;;;;;;;10.60;69.80;;;9.34;nan;96123.59;4272127;32;20131;-82
2022/04/16 05:45:28;;;;;;;;;;;10.50;70.20;;;9.26;nan;96114.00;4271844;32;20232;-82
2022/04/16 05:47:57;;;;;;;;;;;10.40;70.40;;;9.22;nan;96121.06;4295123;32;19908;-82
2022/04/16 05:50:27;;;;;;;;;;;10.40;70.80;;;9.15;nan;96121.28;4271692;32;19908;-82
2022/04/16 05:52:55;;;;;;;;;;;10.30;71.00;;;9.12;nan;96124.53;4271776;32;19901;-82
2022/04/16 05:55:24;;;;;;;;;;;10.30;71.40;;;9.09;nan;96116.91;4271673;32;19906;-82
2022/04/16 05:57:52;;;;;;;;;;;10.20;71.50;;;9.07;nan;96116.34;4295489;32;19908;-82
2022/04/16 06:00:21;;;;;;;;;;;10.20;71.70;;;9.11;nan;96106.50;4296524;32;19901;-82
2022/04/16 06:02:50;;;;;;;;;;;10.20;71.90;;;9.15;nan;96112.28;4296345;32;19901;-82
2022/04/16 06:05:21;;;;;;;;;;;10.20;71.80;;;9.19;nan;96108.75;4272059;32;19934;-81
2022/04/16 06:07:51;;;;;;;;;;;10.30;72.00;;;9.23;nan;96110.97;4321106;32;20101;-81
2022/04/16 06:10:19;;;;;;;;;;;10.30;71.80;;;9.23;nan;96111.78;4320568;32;19901;-81
2022/04/16 06:12:48;;;;;;;;;;;10.30;71.70;;;9.23;nan;96091.84;4321429;32;19901;-82
2022/04/16 06:15:17;;;;;;;;;;;10.30;71.70;;;9.25;nan;96103.31;4321729;32;20153;-83
2022/04/16 06:17:46;;;;;;;;;;;10.30;71.70;;;9.25;nan;96100.59;4271557;32;19901;-83
2022/04/16 06:20:14;;;;;;;;;;;10.30;71.70;;;9.24;nan;96093.47;4296045;32;19920;-83
2022/04/16 06:22:43;;;;;;;;;;;10.30;71.60;;;9.19;nan;96100.56;4296105;32;20131;-83
2022/04/16 06:25:13;;;;;;;;;;;10.30;71.70;;;9.15;nan;96101.38;4296088;32;19901;-83
2022/04/16 06:27:42;;;;;;;;;;;10.20;71.70;;;9.11;nan;96114.69;4295456;32;20444;-83
2022/04/16 06:30:12;;;;;;;;;;;10.20;71.80;;;9.08;nan;96119.88;4271715;32;19901;-83
2022/04/16 06:32:40;;;;;;;;;;;10.20;72.00;;;9.03;nan;96115.22;4271113;32;19991;-83
2022/04/16 06:35:12;;;;;;;;;;;10.10;72.20;;;9.00;nan;96115.72;4319946;32;19908;-83
2022/04/16 06:37:41;;;;;;;;;;;10.10;72.40;;;8.96;nan;96114.63;4270673;32;20223;-83
2022/04/16 06:40:11;;;;;;;;;;;10.10;72.40;;;8.92;nan;96116.22;4271326;32;20223;-82
2022/04/16 06:42:42;;;;;;;;;;;10.00;72.60;;;8.89;nan;96123.03;4271341;32;19908;-83
2022/04/16 06:45:11;;;;;;;;;;;10.00;72.70;;;8.85;nan;96122.72;4271424;32;19901;-83
2022/04/16 06:47:40;;;;;;;;;;;10.00;73.00;;;8.84;nan;96128.44;4295238;32;19900;-83
2022/04/16 06:50:10;;;;;;;;;;;9.90;73.10;;;8.80;nan;96133.63;4295872;32;19900;-83
2022/04/16 06:52:38;;;;;;;;;;;9.90;73.20;;;8.78;nan;96133.03;4295605;32;20126;-82
2022/04/16 06:55:08;;;;;;;;;;;9.90;73.30;;;8.77;nan;96131.41;4271577;32;20096;-83
2022/04/16 06:57:36;;;;;;;;;;;9.90;73.40;;;8.74;nan;96129.19;4295169;32;19900;-82
2022/04/16 07:00:08;;;;;;;;;;;9.80;73.40;;;8.72;nan;96132.19;4295667;32;19900;-83
2022/04/16 07:02:37;;;;;;;;;;;9.80;73.50;;;8.72;nan;96126.72;4271469;32;20131;-82
2022/04/16 07:05:08;;;;;;;;;;;9.80;73.70;;;8.72;nan;96136.81;4295241;32;19994;-83
2022/04/16 07:07:36;;;;;;;;;;;9.80;73.70;;;8.72;nan;96134.06;4270840;32;20130;-83
2022/04/16 07:10:07;;;;;;;;;;;9.80;73.90;;;8.73;nan;96127.53;4321100;32;20258;-83
2022/04/16 07:12:36;;;;;;;;;;;9.80;73.90;;;8.75;nan;96130.84;4295509;32;19942;-82
2022/04/16 07:15:11;;;;;;;;;;;9.80;73.80;;;8.75;nan;96130.84;4320806;32;19908;-83
2022/04/16 07:17:40;;;;;;;;;;;9.80;73.90;;;8.77;nan;96130.59;4294857;32;19982;-83
2022/04/16 07:20:10;;;;;;;;;;;9.80;73.80;;;8.78;nan;96130.31;4271435;32;19901;-83
2022/04/16 07:22:39;;;;;;;;;;;9.80;73.80;;;8.78;nan;96141.22;4271390;32;20175;-83
2022/04/16 07:25:08;;;;;;;;;;;9.80;73.70;;;8.80;nan;96139.06;4271358;32;19901;-83
2022/04/16 07:27:37;;;;;;;;;;;9.90;73.70;;;8.81;nan;96140.72;4270821;32;19908;-83
2022/04/16 07:30:07;;;;;;;;;;;9.90;73.70;;;8.81;nan;96143.44;4295435;32;20085;-83
2022/04/16 07:32:38;;;;;;;;;;;9.90;73.60;;;8.82;nan;96150.56;4294339;32;19963;-82
2022/04/16 07:35:07;;;;;;;;;;;9.90;73.60;;;8.87;nan;96147.03;4295238;32;19901;-83
2022/04/16 07:37:36;;;;;;;;;;;9.90;73.70;;;8.99;nan;96141.38;4270442;32;19967;-83
2022/04/16 07:40:05;;;;;;;;;;;10.00;73.60;;;9.11;nan;96144.75;4271137;32;19901;-84
2022/04/16 07:42:34;;;;;;;;;;;10.00;73.30;;;9.23;nan;96141.03;4271202;32;20062;-83
2022/04/16 07:45:04;;;;;;;;;;;10.10;73.00;;;9.34;nan;96148.19;4270783;32;20065;-83
2022/04/16 07:47:32;;;;;;;;;;;10.20;72.70;;;9.41;nan;96140.56;4270740;32;19901;-83
2022/04/16 07:50:02;;;;;;;;;;;10.40;72.50;;;9.49;nan;96134.59;4297630;32;19901;-83
2022/04/16 07:52:31;;;;;;;;;;;10.40;72.10;;;9.56;nan;96133.53;4273580;32;19900;-84
2022/04/16 07:54:59;;;;;;;;;;;10.40;71.80;;;9.58;nan;96129.44;4273623;32;19908;-83
2022/04/16 07:57:28;;;;;;;;;;;10.50;71.70;;;9.55;nan;96132.72;4296927;32;19901;-83
2022/04/16 07:59:57;;;;;;;;;;;10.50;71.50;;;9.50;nan;96135.44;4273618;32;20035;-83
2022/04/16 08:02:25;;;;;;;;;;;10.50;71.50;;;9.46;nan;96135.16;4273533;32;19901;-84
2022/04/16 08:04:54;;;;;;;;;;;10.50;71.60;;;9.46;nan;96137.88;4297620;32;19900;-83
2022/04/16 08:07:24;;;;;;;;;;;10.50;71.80;;;9.48;nan;96129.41;4272552;32;20109;-83
2022/04/16 08:09:52;;;;;;;;;;;10.40;71.80;;;9.47;nan;96131.31;4297523;32;19907;-84
2022/04/16 08:12:21;;;;;;;;;;;10.50;71.80;;;9.48;nan;96132.97;4297417;32;19908;-84
2022/04/16 08:14:50;;;;;;;;;;;10.50;71.80;;;9.48;nan;96126.66;4297253;32;19900;-83
2022/04/16 08:17:18;;;;;;;;;;;10.50;71.80;;;9.45;nan;96127.19;4296820;32;19907;-83
2022/04/16 08:19:47;;;;;;;;;;;10.50;71.70;;;9.39;nan;96129.06;4273382;32;20105;-84
2022/04/16 08:22:21;;;;;;;;;;;10.50;71.80;;;9.34;nan;96124.41;4273012;32;20028;-84
2022/04/16 08:25:43;;;;;;;;;;;10.40;71.80;;;9.31;nan;96121.38;4313725;32;20103;-84
2022/04/16 08:27:45;;;;;;;;;;;10.40;72.00;;;9.27;nan;96120.25;4296633;32;19901;-83
2022/04/16 08:30:14;;;;;;;;;;;10.40;72.10;;;9.26;nan;96116.72;4296999;32;19900;-83
2022/04/16 08:32:43;;;;;;;;;;;10.30;72.40;;;9.25;nan;96123.28;4272728;32;19901;-83
2022/04/16 08:35:12;;;;;;;;;;;10.30;72.40;;;9.24;nan;96123.50;4322388;32;20022;-84
2022/04/16 08:37:41;;;;;;;;;;;10.30;72.30;;;9.25;nan;96116.97;4322059;32;19910;-83
2022/04/16 08:40:12;;;;;;;;;;;10.30;72.50;;;9.28;nan;96121.91;4273222;32;20161;-84
2022/04/16 08:42:41;;;;;;;;;;;10.30;72.50;;;9.32;nan;96117.56;4273045;32;20026;-84
2022/04/16 08:45:11;;;;;;;;;;;10.30;72.50;;;9.34;nan;96121.69;4272914;32;20083;-84
2022/04/16 08:47:39;;;;;;;;;;;10.30;72.40;;;9.36;nan;96114.03;4272597;32;20137;-84
2022/04/16 08:50:09;;;;;;;;;;;10.40;72.30;;;9.40;nan;96111.59;4272959;32;19900;-84
2022/04/16 08:52:38;;;;;;;;;;;10.40;72.20;;;9.43;nan;96099.31;4272951;32;20380;-84
2022/04/16 08:55:11;;;;;;;;;;;10.40;72.10;;;9.46;nan;96096.88;4296782;32;20200;-84
2022/04/16 08:57:41;;;;;;;;;;;10.50;72.10;;;9.48;nan;96100.19;4271879;32;19901;-84
2022/04/16 09:00:13;;;;;;;;;;;10.50;72.00;;;9.50;nan;96094.44;4272569;32;19909;-84
2022/04/16 09:02:51;;;;;;;;;;;10.50;71.90;;;9.52;nan;96093.06;4272724;32;19952;-84
2022/04/16 09:05:20;;;;;;;;;;;10.50;71.90;;;9.51;nan;96083.22;4296891;32;19901;-84
2022/04/16 09:07:50;;;;;;;;;;;10.60;71.80;;;9.54;nan;96087.38;4296600;32;20099;-84
2022/04/16 09:10:20;;;;;;;;;;;10.60;71.70;;;9.55;nan;96079.97;4296594;32;20333;-84
2022/04/16 09:12:51;;;;;;;;;;;10.60;71.70;;;9.56;nan;96087.09;4271663;32;19901;-83
2022/04/16 09:15:20;;;;;;;;;;;10.60;71.70;;;9.57;nan;96077.81;4296006;32;20109;-84
2022/04/16 09:17:58;;;;;;;;;;;10.60;71.60;;;9.58;nan;96072.06;4294850;32;19901;-84
2022/04/16 09:20:32;;;;;;;;;;;10.60;71.60;;;9.59;nan;96078.34;4271739;32;20105;-84
2022/04/16 09:23:00;;;;;;;;;;;10.60;71.60;;;9.59;nan;96070.97;4271766;32;19908;-84
2022/04/16 09:25:33;;;;;;;;;;;10.60;71.60;;;9.60;nan;96063.59;4296193;32;19973;-84
2022/04/16 09:28:07;;;;;;;;;;;10.60;71.60;;;9.59;nan;96067.44;4271588;32;20081;-84
2022/04/16 09:30:37;;;;;;;;;;;10.60;71.60;;;9.58;nan;96072.06;4280242;33;20060;-83
2022/04/16 09:33:08;;;;;;;;;;;10.60;71.60;;;9.57;nan;96064.13;4267212;33;19908;-83
2022/04/16 09:35:37;;;;;;;;;;;10.60;71.70;;;9.57;nan;96055.94;4292648;33;19912;-84
2022/04/16 09:38:07;;;;;;;;;;;10.60;71.80;;;9.56;nan;96052.38;4243314;33;20132;-84
2022/04/16 09:40:37;;;;;;;;;;;10.60;71.90;;;9.55;nan;96050.75;4267642;33;20086;-84
2022/04/16 09:43:07;;;;;;;;;;;10.60;71.90;;;9.56;nan;96051.56;4243642;33;19909;-84
2022/04/16 09:45:39;;;;;;;;;;;10.60;71.80;;;9.57;nan;96050.47;4243553;33;19905;-84
2022/04/16 09:48:11;;;;;;;;;;;10.60;71.80;;;9.56;nan;96046.09;4266938;33;19909;-83
2022/04/16 09:50:40;;;;;;;;;;;10.60;71.80;;;9.56;nan;96041.44;4256091;32;19901;-83
2022/04/16 09:53:09;;;;;;;;;;;10.60;71.80;;;9.56;nan;96035.16;4296375;32;19901;-84
2022/04/16 09:55:40;;;;;;;;;;;10.60;72.00;;;9.56;nan;96030.50;4296278;32;19901;-84
2022/04/16 09:58:09;;;;;;;;;;;10.60;71.90;;;9.56;nan;96029.69;4271433;32;19900;-84
2022/04/16 10:00:38;;;;;;;;;;;10.60;71.90;;;9.56;nan;96024.22;4286102;33;19965;-83
2022/04/16 10:03:08;;;;;;;;;;;10.60;71.90;;;9.54;nan;96032.72;4243455;33;20267;-83
2022/04/16 10:05:37;;;;;;;;;;;10.60;71.90;;;9.52;nan;96024.75;4267295;33;19901;-83
2022/04/16 10:08:06;;;;;;;;;;;10.60;72.00;;;9.52;nan;96024.75;4243054;33;20120;-83
2022/04/16 10:10:41;;;;;;;;;;;10.60;72.10;;;9.51;nan;96028.56;4243053;33;19901;-83
2022/04/16 10:13:13;;;;;;;;;;;10.60;72.10;;;9.49;nan;96028.03;4243192;33;19901;-83
2022/04/16 10:15:52;;;;;;;;;;;10.50;72.10;;;9.47;nan;96032.97;4243213;33;20466;-83
2022/04/16 10:18:21;;;;;;;;;;;10.50;72.20;;;9.43;nan;96026.38;4266715;33;19908;-83
2022/04/16 10:20:53;;;;;;;;;;;10.50;72.40;;;9.43;nan;96031.84;4267221;33;19903;-83
2022/04/16 10:23:27;;;;;;;;;;;10.50;72.50;;;9.41;nan;96023.09;4243283;33;20128;-83
2022/04/16 10:26:04;;;;;;;;;;;10.50;72.60;;;9.42;nan;96032.13;4266612;33;19913;-83
2022/04/16 10:28:39;;;;;;;;;;;10.50;72.70;;;9.42;nan;96018.47;4243249;33;20155;-83
2022/04/16 10:31:19;;;;;;;;;;;10.50;72.80;;;9.41;nan;96017.63;4243236;33;19908;-83
2022/04/16 10:34:00;;;;;;;;;;;10.50;72.80;;;9.41;nan;96016.81;4266899;33;20217;-84
2022/04/16 10:36:32;;;;;;;;;;;10.50;72.80;;;9.40;nan;96021.44;4255957;32;20159;-83
2022/04/16 10:39:01;;;;;;;;;;;10.40;72.70;;;9.40;nan;96013.25;4295771;32;19900;-83
2022/04/16 10:41:29;;;;;;;;;;;10.40;72.70;;;9.38;nan;96012.69;4271617;32;19908;-83
2022/04/16 10:44:01;;;;;;;;;;;10.40;72.70;;;9.39;nan;96013.53;4295927;32;20185;-83
2022/04/16 10:46:46;;;;;;;;;;;10.50;72.90;;;9.38;nan;96006.41;4295581;32;20266;-83
2022/04/16 10:49:15;;;;;;;;;;;10.40;72.80;;;9.37;nan;96000.09;4295395;32;19936;-84
2022/04/16 10:51:43;;;;;;;;;;;10.50;72.90;;;9.38;nan;96001.75;4295921;32;20123;-83
2022/04/16 10:54:13;;;;;;;;;;;10.40;72.90;;;9.38;nan;95987.28;4295771;32;20475;-83
2022/04/16 10:56:46;;;;;;;;;;;10.40;72.90;;;9.38;nan;95988.09;4283177;33;20108;-83
2022/04/16 10:59:15;;;;;;;;;;;10.40;72.90;;;9.40;nan;95988.66;4242639;33;19908;-83
2022/04/16 11:01:53;;;;;;;;;;;10.50;73.00;;;9.38;nan;95985.38;4242832;33;19901;-83
2022/04/16 11:04:22;;;;;;;;;;;10.50;73.00;;;9.41;nan;95979.38;4242907;33;19902;-83
2022/04/16 11:06:51;;;;;;;;;;;10.50;73.00;;;9.41;nan;95973.09;4242333;33;20020;-83
2022/04/16 11:09:20;;;;;;;;;;;10.50;72.90;;;9.41;nan;95973.91;4266711;33;19902;-83
2022/04/16 11:11:52;;;;;;;;;;;10.40;72.80;;;9.42;nan;95972.00;4266767;33;20209;-83
2022/04/16 11:14:22;;;;;;;;;;;10.50;73.00;;;9.42;nan;95978.28;4242355;33;20363;-83
2022/04/16 11:16:50;;;;;;;;;;;10.50;72.90;;;9.43;nan;95976.34;4242026;33;19908;-83
2022/04/16 11:19:19;;;;;;;;;;;10.50;72.80;;;9.43;nan;95973.63;4242190;33;19909;-84
2022/04/16 11:21:47;;;;;;;;;;;10.50;72.90;;;9.43;nan;95965.44;4242749;33;20023;-84
2022/04/16 11:24:16;;;;;;;;;;;10.50;72.90;;;9.42;nan;95970.09;4245305;33;19902;-84
2022/04/16 11:35:05;;;;;;;;;;;10.50;73.00;;;9.41;nan;95953.97;4273592;32;19908;-84
2022/04/16 11:37:34;;;;;;;;;;;10.50;72.90;;;9.40;nan;95966.78;4283085;33;20147;-83
2022/04/16 11:40:05;;;;;;;;;;;10.50;73.00;;;9.40;nan;95963.25;4268817;33;19909;-84
2022/04/16 11:42:33;;;;;;;;;;;10.50;74.00;;;9.40;nan;95966.78;4245062;33;20089;-83
2022/04/16 11:45:09;;;;;;;;;;;10.50;73.20;;;9.39;nan;95965.16;4244945;33;20020;-84
2022/04/16 11:47:38;;;;;;;;;;;10.50;73.30;;;9.40;nan;95957.78;4244442;33;20440;-84
2022/04/16 11:50:08;;;;;;;;;;;10.50;73.20;;;9.40;nan;95960.53;4268829;33;19901;-84
2022/04/16 11:52:37;;;;;;;;;;;10.50;73.10;;;9.41;nan;95957.50;4268702;33;19902;-83
2022/04/16 11:55:07;;;;;;;;;;;10.50;73.20;;;9.42;nan;95950.97;4268542;33;20237;-84
2022/04/16 11:57:36;;;;;;;;;;;10.50;73.20;;;9.42;nan;95953.69;4254833;32;19908;-83
2022/04/16 12:00:08;;;;;;;;;;;10.50;73.20;;;9.43;nan;95949.88;4273449;32;19948;-84
2022/04/16 12:02:37;;;;;;;;;;;10.50;73.10;;;9.43;nan;95958.06;4273525;32;20445;-83
2022/04/16 12:05:13;;;;;;;;;;;10.50;73.10;;;9.44;nan;95945.22;4297778;32;20232;-84
2022/04/16 12:07:43;;;;;;;;;;;10.50;73.10;;;9.43;nan;95943.56;4287115;33;20220;-84
2022/04/16 12:10:13;;;;;;;;;;;10.50;73.10;;;9.43;nan;95940.84;4268566;33;19901;-84
2022/04/16 12:12:47;;;;;;;;;;;10.50;73.20;;;9.42;nan;95942.75;4244946;33;20243;-84
2022/04/16 12:15:24;;;;;;;;;;;10.50;73.20;;;9.42;nan;95942.75;4268684;33;19986;-83
2022/04/16 12:17:53;;;;;;;;;;;10.50;73.20;;;9.42;nan;95937.28;4243686;33;19908;-83
2022/04/16 12:20:21;;;;;;;;;;;10.50;73.30;;;9.43;nan;95947.13;4244848;33;19901;-83